sensor_id;sensor_type;location;lat;lon;timestamp;P1;durP1;ratioP1;P2;durP2;ratioP2
11847;SDS011;5983;49.966;8.052;2023-03-26T00:01:03;5.03;;;1.00;;
11847;SDS011;5983;49.966;8.052;2023-03-26T00:03:32;9.07;;;1.10;;
11847;SDS011;5983;49.966;8.052;2023-03-26T00:06:01;5.77;;;1.20;;
11847;SDS011;5983;49.966;8.052;2023-03-26T00:08:31;7.73;;;1.20;;
11847;SDS011;5983;49.966;8.052;2023-03-26T00:10:59;2.87;;;0.93;;
11847;SDS011;5983;49.966;8.052;2023-03-26T00:13:26;8.10;;;1.10;;
11847;SDS011;5983;49.966;8.052;2023-03-26T00:15:55;5.03;;;1.03;;
11847;SDS011;5983;49.966;8.052;2023-03-26T00:18:22;4.00;;;0.80;;
11847;SDS011;5983;49.966;8.052;2023-03-26T00:20:54;4.97;;;0.93;;
11847;SDS011;5983;49.966;8.052;2023-03-26T00:23:22;6.83;;;1.27;;
11847;SDS011;5983;49.966;8.052;2023-03-26T00:25:52;7.40;;;1.30;;
11847;SDS011;5983;49.966;8.052;2023-03-26T00:28:20;5.80;;;1.00;;
11847;SDS011;5983;49.966;8.052;2023-03-26T00:30:48;3.27;;;1.00;;
11847;SDS011;5983;49.966;8.052;2023-03-26T00:33:24;6.87;;;1.30;;
11847;SDS011;5983;49.966;8.052;2023-03-26T00:35:52;4.97;;;1.30;;
11847;SDS011;5983;49.966;8.052;2023-03-26T00:38:23;4.23;;;1.00;;
11847;SDS011;5983;49.966;8.052;2023-03-26T00:40:51;1.97;;;0.80;;
11847;SDS011;5983;49.966;8.052;2023-03-26T00:43:18;6.23;;;0.90;;
11847;SDS011;5983;49.966;8.052;2023-03-26T00:45:49;3.80;;;1.07;;
11847;SDS011;5983;49.966;8.052;2023-03-26T00:48:20;7.17;;;1.10;;
11847;SDS011;5983;49.966;8.052;2023-03-26T00:50:48;3.40;;;0.87;;
11847;SDS011;5983;49.966;8.052;2023-03-26T00:53:16;4.83;;;1.00;;
11847;SDS011;5983;49.966;8.052;2023-03-26T00:55:44;5.83;;;1.07;;
11847;SDS011;5983;49.966;8.052;2023-03-26T00:58:13;7.30;;;0.90;;
11847;SDS011;5983;49.966;8.052;2023-03-26T01:00:42;6.57;;;1.03;;
11847;SDS011;5983;49.966;8.052;2023-03-26T01:03:13;5.97;;;1.57;;
11847;SDS011;5983;49.966;8.052;2023-03-26T01:05:46;5.83;;;1.10;;
11847;SDS011;5983;49.966;8.052;2023-03-26T01:08:24;3.97;;;1.00;;
11847;SDS011;5983;49.966;8.052;2023-03-26T01:10:57;5.60;;;1.23;;
11847;SDS011;5983;49.966;8.052;2023-03-26T01:13:29;3.73;;;1.27;;
11847;SDS011;5983;49.966;8.052;2023-03-26T01:16:00;4.57;;;1.13;;
11847;SDS011;5983;49.966;8.052;2023-03-26T01:18:34;4.07;;;0.90;;
11847;SDS011;5983;49.966;8.052;2023-03-26T01:21:06;3.43;;;0.80;;
11847;SDS011;5983;49.966;8.052;2023-03-26T01:23:39;8.37;;;1.03;;
11847;SDS011;5983;49.966;8.052;2023-03-26T01:26:15;4.87;;;0.83;;
11847;SDS011;5983;49.966;8.052;2023-03-26T01:29:01;3.87;;;1.00;;
11847;SDS011;5983;49.966;8.052;2023-03-26T01:31:33;5.73;;;1.30;;
11847;SDS011;5983;49.966;8.052;2023-03-26T01:34:11;6.50;;;1.10;;
11847;SDS011;5983;49.966;8.052;2023-03-26T01:36:47;5.63;;;1.00;;
11847;SDS011;5983;49.966;8.052;2023-03-26T01:39:26;3.90;;;0.87;;
11847;SDS011;5983;49.966;8.052;2023-03-26T01:42:05;4.57;;;1.13;;
11847;SDS011;5983;49.966;8.052;2023-03-26T01:44:38;6.20;;;1.17;;
11847;SDS011;5983;49.966;8.052;2023-03-26T01:47:13;4.13;;;0.90;;
11847;SDS011;5983;49.966;8.052;2023-03-26T01:49:43;1.60;;;0.63;;
11847;SDS011;5983;49.966;8.052;2023-03-26T01:52:11;4.83;;;1.10;;
11847;SDS011;5983;49.966;8.052;2023-03-26T01:54:42;3.50;;;1.27;;
11847;SDS011;5983;49.966;8.052;2023-03-26T01:57:13;3.97;;;0.90;;
11847;SDS011;5983;49.966;8.052;2023-03-26T01:59:59;4.63;;;1.17;;
11847;SDS011;5983;49.966;8.052;2023-03-26T02:02:38;5.07;;;1.00;;
11847;SDS011;5983;49.966;8.052;2023-03-26T02:05:24;3.30;;;1.23;;
11847;SDS011;5983;49.966;8.052;2023-03-26T02:07:58;2.73;;;0.70;;
11847;SDS011;5983;49.966;8.052;2023-03-26T02:10:37;3.37;;;1.00;;
11847;SDS011;5983;49.966;8.052;2023-03-26T02:13:10;3.97;;;0.90;;
11847;SDS011;5983;49.966;8.052;2023-03-26T02:15:38;3.60;;;0.70;;
11847;SDS011;5983;49.966;8.052;2023-03-26T02:18:06;4.90;;;0.93;;
11847;SDS011;5983;49.966;8.052;2023-03-26T02:20:34;4.77;;;1.17;;
11847;SDS011;5983;49.966;8.052;2023-03-26T02:23:02;7.27;;;1.07;;
11847;SDS011;5983;49.966;8.052;2023-03-26T02:25:29;5.33;;;0.97;;
11847;SDS011;5983;49.966;8.052;2023-03-26T02:27:59;5.37;;;0.97;;
11847;SDS011;5983;49.966;8.052;2023-03-26T02:30:27;2.53;;;1.60;;
11847;SDS011;5983;49.966;8.052;2023-03-26T02:32:54;4.77;;;1.07;;
11847;SDS011;5983;49.966;8.052;2023-03-26T02:35:23;4.57;;;1.30;;
11847;SDS011;5983;49.966;8.052;2023-03-26T02:37:50;2.80;;;0.83;;
11847;SDS011;5983;49.966;8.052;2023-03-26T02:40:17;2.57;;;0.80;;
11847;SDS011;5983;49.966;8.052;2023-03-26T02:42:45;2.33;;;0.83;;
11847;SDS011;5983;49.966;8.052;2023-03-26T02:45:12;4.13;;;0.90;;
11847;SDS011;5983;49.966;8.052;2023-03-26T02:47:40;4.80;;;1.30;;
11847;SDS011;5983;49.966;8.052;2023-03-26T02:50:09;5.70;;;1.20;;
11847;SDS011;5983;49.966;8.052;2023-03-26T02:52:36;5.27;;;1.40;;
11847;SDS011;5983;49.966;8.052;2023-03-26T02:55:04;4.33;;;1.13;;
11847;SDS011;5983;49.966;8.052;2023-03-26T02:57:31;8.27;;;1.10;;
11847;SDS011;5983;49.966;8.052;2023-03-26T02:59:58;7.33;;;1.23;;
11847;SDS011;5983;49.966;8.052;2023-03-26T03:02:32;4.87;;;1.07;;
11847;SDS011;5983;49.966;8.052;2023-03-26T03:05:03;2.67;;;0.97;;
11847;SDS011;5983;49.966;8.052;2023-03-26T03:07:32;5.57;;;1.07;;
11847;SDS011;5983;49.966;8.052;2023-03-26T03:10:01;5.53;;;1.50;;
11847;SDS011;5983;49.966;8.052;2023-03-26T03:12:28;2.90;;;0.90;;
11847;SDS011;5983;49.966;8.052;2023-03-26T03:14:55;2.03;;;0.63;;
11847;SDS011;5983;49.966;8.052;2023-03-26T03:17:22;3.70;;;1.23;;
11847;SDS011;5983;49.966;8.052;2023-03-26T03:19:49;2.40;;;1.10;;
11847;SDS011;5983;49.966;8.052;2023-03-26T03:22:17;4.73;;;1.27;;
11847;SDS011;5983;49.966;8.052;2023-03-26T03:24:45;5.57;;;1.20;;
11847;SDS011;5983;49.966;8.052;2023-03-26T03:27:12;3.47;;;1.00;;
11847;SDS011;5983;49.966;8.052;2023-03-26T03:29:39;3.87;;;1.10;;
11847;SDS011;5983;49.966;8.052;2023-03-26T03:32:06;5.40;;;1.00;;
11847;SDS011;5983;49.966;8.052;2023-03-26T03:34:33;2.27;;;0.90;;
11847;SDS011;5983;49.966;8.052;2023-03-26T03:37:02;5.83;;;1.27;;
11847;SDS011;5983;49.966;8.052;2023-03-26T03:39:30;4.00;;;0.90;;
11847;SDS011;5983;49.966;8.052;2023-03-26T03:41:59;2.07;;;0.83;;
11847;SDS011;5983;49.966;8.052;2023-03-26T03:44:25;3.57;;;0.90;;
11847;SDS011;5983;49.966;8.052;2023-03-26T03:46:52;6.17;;;1.43;;
11847;SDS011;5983;49.966;8.052;2023-03-26T03:49:20;3.37;;;1.10;;
11847;SDS011;5983;49.966;8.052;2023-03-26T03:51:47;4.87;;;1.03;;
11847;SDS011;5983;49.966;8.052;2023-03-26T03:54:14;2.73;;;1.03;;
11847;SDS011;5983;49.966;8.052;2023-03-26T03:56:42;6.20;;;1.60;;
11847;SDS011;5983;49.966;8.052;2023-03-26T03:59:11;4.80;;;0.93;;
11847;SDS011;5983;49.966;8.052;2023-03-26T04:01:38;2.10;;;1.00;;
11847;SDS011;5983;49.966;8.052;2023-03-26T04:04:07;5.43;;;0.97;;
11847;SDS011;5983;49.966;8.052;2023-03-26T04:06:34;3.97;;;0.90;;
11847;SDS011;5983;49.966;8.052;2023-03-26T04:09:01;6.07;;;1.47;;
11847;SDS011;5983;49.966;8.052;2023-03-26T04:11:28;5.03;;;1.00;;
11847;SDS011;5983;49.966;8.052;2023-03-26T04:13:56;5.27;;;0.90;;
11847;SDS011;5983;49.966;8.052;2023-03-26T04:16:23;7.23;;;1.20;;
11847;SDS011;5983;49.966;8.052;2023-03-26T04:18:50;4.13;;;1.20;;
11847;SDS011;5983;49.966;8.052;2023-03-26T04:21:17;5.50;;;1.20;;
11847;SDS011;5983;49.966;8.052;2023-03-26T04:23:44;5.70;;;1.27;;
11847;SDS011;5983;49.966;8.052;2023-03-26T04:26:11;3.17;;;0.90;;
11847;SDS011;5983;49.966;8.052;2023-03-26T04:28:44;3.87;;;1.10;;
11847;SDS011;5983;49.966;8.052;2023-03-26T04:31:16;4.90;;;1.33;;
11847;SDS011;5983;49.966;8.052;2023-03-26T04:33:48;6.20;;;1.87;;
11847;SDS011;5983;49.966;8.052;2023-03-26T04:36:18;6.17;;;1.63;;
11847;SDS011;5983;49.966;8.052;2023-03-26T04:38:51;3.20;;;1.10;;
11847;SDS011;5983;49.966;8.052;2023-03-26T04:41:19;3.27;;;1.30;;
11847;SDS011;5983;49.966;8.052;2023-03-26T04:43:50;2.67;;;0.83;;
11847;SDS011;5983;49.966;8.052;2023-03-26T04:46:19;3.77;;;0.90;;
11847;SDS011;5983;49.966;8.052;2023-03-26T04:48:47;4.27;;;1.20;;
11847;SDS011;5983;49.966;8.052;2023-03-26T04:51:15;8.37;;;1.60;;
11847;SDS011;5983;49.966;8.052;2023-03-26T04:53:47;5.37;;;1.13;;
11847;SDS011;5983;49.966;8.052;2023-03-26T04:56:21;3.27;;;1.40;;
11847;SDS011;5983;49.966;8.052;2023-03-26T04:59:03;7.47;;;1.43;;
11847;SDS011;5983;49.966;8.052;2023-03-26T05:01:33;8.40;;;1.57;;
11847;SDS011;5983;49.966;8.052;2023-03-26T05:04:01;6.60;;;1.40;;
11847;SDS011;5983;49.966;8.052;2023-03-26T05:06:28;8.43;;;1.83;;
11847;SDS011;5983;49.966;8.052;2023-03-26T05:08:58;3.80;;;1.27;;
11847;SDS011;5983;49.966;8.052;2023-03-26T05:11:25;3.57;;;1.00;;
11847;SDS011;5983;49.966;8.052;2023-03-26T05:13:52;2.70;;;1.10;;
11847;SDS011;5983;49.966;8.052;2023-03-26T05:16:21;5.13;;;1.03;;
11847;SDS011;5983;49.966;8.052;2023-03-26T05:18:50;4.50;;;1.10;;
11847;SDS011;5983;49.966;8.052;2023-03-26T05:21:18;6.30;;;1.33;;
11847;SDS011;5983;49.966;8.052;2023-03-26T05:23:45;3.17;;;1.00;;
11847;SDS011;5983;49.966;8.052;2023-03-26T05:26:12;7.47;;;1.67;;
11847;SDS011;5983;49.966;8.052;2023-03-26T05:28:39;3.97;;;1.20;;
11847;SDS011;5983;49.966;8.052;2023-03-26T05:31:06;9.03;;;1.90;;
11847;SDS011;5983;49.966;8.052;2023-03-26T05:33:33;4.70;;;1.10;;
11847;SDS011;5983;49.966;8.052;2023-03-26T05:36:02;2.73;;;1.00;;
11847;SDS011;5983;49.966;8.052;2023-03-26T05:38:33;4.53;;;1.30;;
11847;SDS011;5983;49.966;8.052;2023-03-26T05:41:02;6.47;;;1.10;;
11847;SDS011;5983;49.966;8.052;2023-03-26T05:43:32;4.00;;;1.30;;
11847;SDS011;5983;49.966;8.052;2023-03-26T05:46:00;5.47;;;1.23;;
11847;SDS011;5983;49.966;8.052;2023-03-26T05:48:27;3.57;;;1.03;;
11847;SDS011;5983;49.966;8.052;2023-03-26T05:50:55;5.97;;;1.77;;
11847;SDS011;5983;49.966;8.052;2023-03-26T05:53:25;7.30;;;1.20;;
11847;SDS011;5983;49.966;8.052;2023-03-26T05:55:52;6.70;;;1.27;;
11847;SDS011;5983;49.966;8.052;2023-03-26T05:58:22;9.00;;;1.40;;
11847;SDS011;5983;49.966;8.052;2023-03-26T06:00:54;3.80;;;1.70;;
11847;SDS011;5983;49.966;8.052;2023-03-26T06:03:24;4.47;;;1.53;;
11847;SDS011;5983;49.966;8.052;2023-03-26T06:05:51;4.43;;;1.40;;
11847;SDS011;5983;49.966;8.052;2023-03-26T06:08:18;4.50;;;1.67;;
11847;SDS011;5983;49.966;8.052;2023-03-26T06:10:47;5.93;;;1.67;;
11847;SDS011;5983;49.966;8.052;2023-03-26T06:13:14;6.13;;;1.90;;
11847;SDS011;5983;49.966;8.052;2023-03-26T06:15:41;6.97;;;1.60;;
11847;SDS011;5983;49.966;8.052;2023-03-26T06:18:08;8.33;;;1.73;;
11847;SDS011;5983;49.966;8.052;2023-03-26T06:20:36;7.47;;;1.50;;
11847;SDS011;5983;49.966;8.052;2023-03-26T06:23:03;4.63;;;1.63;;
11847;SDS011;5983;49.966;8.052;2023-03-26T06:25:30;6.60;;;1.90;;
11847;SDS011;5983;49.966;8.052;2023-03-26T06:28:01;6.43;;;2.10;;
11847;SDS011;5983;49.966;8.052;2023-03-26T06:30:28;6.47;;;1.97;;
11847;SDS011;5983;49.966;8.052;2023-03-26T06:33:01;7.57;;;2.50;;
11847;SDS011;5983;49.966;8.052;2023-03-26T06:35:30;7.57;;;2.60;;
11847;SDS011;5983;49.966;8.052;2023-03-26T06:37:57;4.70;;;1.40;;
11847;SDS011;5983;49.966;8.052;2023-03-26T06:40:26;7.47;;;1.97;;
11847;SDS011;5983;49.966;8.052;2023-03-26T06:42:59;6.23;;;1.97;;
11847;SDS011;5983;49.966;8.052;2023-03-26T06:45:28;6.43;;;1.53;;
11847;SDS011;5983;49.966;8.052;2023-03-26T06:47:57;6.20;;;1.67;;
11847;SDS011;5983;49.966;8.052;2023-03-26T06:50:27;6.67;;;1.70;;
11847;SDS011;5983;49.966;8.052;2023-03-26T06:52:56;7.57;;;1.70;;
11847;SDS011;5983;49.966;8.052;2023-03-26T06:55:24;7.10;;;1.90;;
11847;SDS011;5983;49.966;8.052;2023-03-26T06:57:52;5.57;;;1.93;;
11847;SDS011;5983;49.966;8.052;2023-03-26T07:00:26;6.43;;;1.57;;
11847;SDS011;5983;49.966;8.052;2023-03-26T07:03:01;7.73;;;1.97;;
11847;SDS011;5983;49.966;8.052;2023-03-26T07:05:31;5.50;;;1.67;;
11847;SDS011;5983;49.966;8.052;2023-03-26T07:07:58;5.60;;;1.40;;
11847;SDS011;5983;49.966;8.052;2023-03-26T07:10:25;5.10;;;1.47;;
11847;SDS011;5983;49.966;8.052;2023-03-26T07:12:52;7.47;;;1.67;;
11847;SDS011;5983;49.966;8.052;2023-03-26T07:15:19;5.23;;;1.23;;
11847;SDS011;5983;49.966;8.052;2023-03-26T07:17:47;5.83;;;1.53;;
11847;SDS011;5983;49.966;8.052;2023-03-26T07:20:14;3.60;;;1.47;;
11847;SDS011;5983;49.966;8.052;2023-03-26T07:22:42;9.50;;;1.70;;
11847;SDS011;5983;49.966;8.052;2023-03-26T07:25:10;4.83;;;1.40;;
11847;SDS011;5983;49.966;8.052;2023-03-26T07:27:43;8.30;;;1.67;;
11847;SDS011;5983;49.966;8.052;2023-03-26T07:30:23;6.03;;;1.80;;
11847;SDS011;5983;49.966;8.052;2023-03-26T07:33:02;4.40;;;1.67;;
11847;SDS011;5983;49.966;8.052;2023-03-26T07:35:37;5.17;;;1.53;;
11847;SDS011;5983;49.966;8.052;2023-03-26T07:38:23;4.00;;;1.27;;
11847;SDS011;5983;49.966;8.052;2023-03-26T07:41:08;6.47;;;1.53;;
11847;SDS011;5983;49.966;8.052;2023-03-26T07:43:52;8.73;;;2.37;;
11847;SDS011;5983;49.966;8.052;2023-03-26T07:46:52;6.93;;;1.80;;
11847;SDS011;5983;49.966;8.052;2023-03-26T07:49:21;3.23;;;1.20;;
11847;SDS011;5983;49.966;8.052;2023-03-26T07:51:49;7.47;;;1.40;;
11847;SDS011;5983;49.966;8.052;2023-03-26T07:54:17;4.77;;;1.40;;
11847;SDS011;5983;49.966;8.052;2023-03-26T07:56:49;4.57;;;1.50;;
11847;SDS011;5983;49.966;8.052;2023-03-26T07:59:30;9.13;;;2.10;;
11847;SDS011;5983;49.966;8.052;2023-03-26T08:02:13;8.47;;;1.63;;
11847;SDS011;5983;49.966;8.052;2023-03-26T08:08:01;4.77;;;1.47;;
11847;SDS011;5983;49.966;8.052;2023-03-26T08:10:41;4.73;;;1.57;;
11847;SDS011;5983;49.966;8.052;2023-03-26T08:13:29;5.03;;;2.10;;
11847;SDS011;5983;49.966;8.052;2023-03-26T08:16:08;5.37;;;1.80;;
11847;SDS011;5983;49.966;8.052;2023-03-26T08:18:53;6.00;;;1.70;;
11847;SDS011;5983;49.966;8.052;2023-03-26T08:21:32;5.37;;;1.67;;
11847;SDS011;5983;49.966;8.052;2023-03-26T08:24:07;6.10;;;1.57;;
11847;SDS011;5983;49.966;8.052;2023-03-26T08:26:46;2.67;;;1.60;;
11847;SDS011;5983;49.966;8.052;2023-03-26T08:29:24;6.10;;;1.53;;
11847;SDS011;5983;49.966;8.052;2023-03-26T08:32:07;7.33;;;1.97;;
11847;SDS011;5983;49.966;8.052;2023-03-26T08:34:41;5.63;;;2.20;;
11847;SDS011;5983;49.966;8.052;2023-03-26T08:37:09;5.50;;;2.10;;
11847;SDS011;5983;49.966;8.052;2023-03-26T08:39:36;5.80;;;1.47;;
11847;SDS011;5983;49.966;8.052;2023-03-26T08:42:12;7.90;;;1.60;;
11847;SDS011;5983;49.966;8.052;2023-03-26T08:45:29;9.10;;;1.50;;
11847;SDS011;5983;49.966;8.052;2023-03-26T08:58:20;5.07;;;1.13;;
11847;SDS011;5983;49.966;8.052;2023-03-26T09:08:18;5.57;;;1.63;;
11847;SDS011;5983;49.966;8.052;2023-03-26T09:11:35;6.37;;;1.97;;
11847;SDS011;5983;49.966;8.052;2023-03-26T09:14:28;4.53;;;1.20;;
11847;SDS011;5983;49.966;8.052;2023-03-26T09:24:09;5.90;;;1.50;;
11847;SDS011;5983;49.966;8.052;2023-03-26T09:30:30;5.80;;;1.00;;
11847;SDS011;5983;49.966;8.052;2023-03-26T09:36:29;2.87;;;1.07;;
11847;SDS011;5983;49.966;8.052;2023-03-26T09:39:16;3.93;;;0.90;;
11847;SDS011;5983;49.966;8.052;2023-03-26T09:42:01;5.57;;;1.13;;
11847;SDS011;5983;49.966;8.052;2023-03-26T09:44:46;1.47;;;0.97;;
11847;SDS011;5983;49.966;8.052;2023-03-26T09:48:04;4.53;;;1.17;;
11847;SDS011;5983;49.966;8.052;2023-03-26T09:50:54;4.43;;;1.40;;
11847;SDS011;5983;49.966;8.052;2023-03-26T09:53:50;5.23;;;2.37;;
11847;SDS011;5983;49.966;8.052;2023-03-26T09:56:49;4.80;;;1.50;;
11847;SDS011;5983;49.966;8.052;2023-03-26T09:59:25;4.30;;;1.27;;
11847;SDS011;5983;49.966;8.052;2023-03-26T10:02:30;4.90;;;1.63;;
11847;SDS011;5983;49.966;8.052;2023-03-26T10:05:22;2.77;;;1.53;;
11847;SDS011;5983;49.966;8.052;2023-03-26T10:08:21;4.63;;;1.30;;
11847;SDS011;5983;49.966;8.052;2023-03-26T10:11:02;3.83;;;1.27;;
11847;SDS011;5983;49.966;8.052;2023-03-26T10:13:48;4.57;;;1.40;;
11847;SDS011;5983;49.966;8.052;2023-03-26T10:16:31;4.83;;;1.23;;
11847;SDS011;5983;49.966;8.052;2023-03-26T10:19:20;3.43;;;0.97;;
11847;SDS011;5983;49.966;8.052;2023-03-26T10:22:08;3.83;;;1.30;;
11847;SDS011;5983;49.966;8.052;2023-03-26T10:25:09;1.50;;;0.80;;
11847;SDS011;5983;49.966;8.052;2023-03-26T10:27:56;2.10;;;1.00;;
11847;SDS011;5983;49.966;8.052;2023-03-26T10:30:44;3.90;;;1.07;;
11847;SDS011;5983;49.966;8.052;2023-03-26T10:33:43;3.20;;;0.60;;
11847;SDS011;5983;49.966;8.052;2023-03-26T10:36:26;2.23;;;1.00;;
11847;SDS011;5983;49.966;8.052;2023-03-26T10:41:59;2.00;;;0.70;;
11847;SDS011;5983;49.966;8.052;2023-03-26T10:44:58;2.03;;;0.83;;
11847;SDS011;5983;49.966;8.052;2023-03-26T10:47:56;1.87;;;0.80;;
11847;SDS011;5983;49.966;8.052;2023-03-26T10:54:14;3.93;;;1.10;;
11847;SDS011;5983;49.966;8.052;2023-03-26T10:56:55;3.53;;;0.90;;
11847;SDS011;5983;49.966;8.052;2023-03-26T10:59:24;3.33;;;0.73;;
11847;SDS011;5983;49.966;8.052;2023-03-26T11:01:55;2.27;;;0.90;;
11847;SDS011;5983;49.966;8.052;2023-03-26T11:04:46;2.23;;;0.50;;
11847;SDS011;5983;49.966;8.052;2023-03-26T11:07:22;3.03;;;1.10;;
11847;SDS011;5983;49.966;8.052;2023-03-26T11:10:01;2.33;;;0.70;;
11847;SDS011;5983;49.966;8.052;2023-03-26T11:12:36;3.13;;;1.03;;
11847;SDS011;5983;49.966;8.052;2023-03-26T11:15:16;2.80;;;0.80;;
11847;SDS011;5983;49.966;8.052;2023-03-26T11:17:55;1.90;;;0.63;;
11847;SDS011;5983;49.966;8.052;2023-03-26T11:20:36;1.47;;;0.77;;
11847;SDS011;5983;49.966;8.052;2023-03-26T11:23:17;1.47;;;0.60;;
11847;SDS011;5983;49.966;8.052;2023-03-26T11:26:02;1.73;;;0.90;;
11847;SDS011;5983;49.966;8.052;2023-03-26T11:28:51;3.53;;;1.00;;
11847;SDS011;5983;49.966;8.052;2023-03-26T11:31:46;5.13;;;1.10;;
11847;SDS011;5983;49.966;8.052;2023-03-26T11:34:25;1.70;;;0.80;;
11847;SDS011;5983;49.966;8.052;2023-03-26T11:37:00;2.00;;;0.70;;
11847;SDS011;5983;49.966;8.052;2023-03-26T11:39:36;2.97;;;0.60;;
11847;SDS011;5983;49.966;8.052;2023-03-26T11:42:13;1.47;;;0.70;;
11847;SDS011;5983;49.966;8.052;2023-03-26T11:44:44;1.30;;;0.60;;
11847;SDS011;5983;49.966;8.052;2023-03-26T11:47:20;0.87;;;0.53;;
11847;SDS011;5983;49.966;8.052;2023-03-26T11:49:56;1.70;;;0.67;;
11847;SDS011;5983;49.966;8.052;2023-03-26T11:52:28;1.73;;;0.60;;
11847;SDS011;5983;49.966;8.052;2023-03-26T11:54:55;1.57;;;0.57;;
11847;SDS011;5983;49.966;8.052;2023-03-26T11:57:24;1.67;;;0.80;;
11847;SDS011;5983;49.966;8.052;2023-03-26T11:59:57;2.17;;;1.30;;
11847;SDS011;5983;49.966;8.052;2023-03-26T12:02:40;1.20;;;0.73;;
11847;SDS011;5983;49.966;8.052;2023-03-26T12:05:15;0.97;;;0.40;;
11847;SDS011;5983;49.966;8.052;2023-03-26T12:07:50;1.03;;;0.50;;
11847;SDS011;5983;49.966;8.052;2023-03-26T12:10:22;1.50;;;0.43;;
11847;SDS011;5983;49.966;8.052;2023-03-26T12:12:54;1.67;;;0.50;;
11847;SDS011;5983;49.966;8.052;2023-03-26T12:15:24;2.10;;;0.63;;
11847;SDS011;5983;49.966;8.052;2023-03-26T12:17:52;0.87;;;0.30;;
11847;SDS011;5983;49.966;8.052;2023-03-26T12:23:12;1.20;;;0.47;;
11847;SDS011;5983;49.966;8.052;2023-03-26T12:26:04;1.33;;;0.60;;
11847;SDS011;5983;49.966;8.052;2023-03-26T12:28:42;1.03;;;0.40;;
11847;SDS011;5983;49.966;8.052;2023-03-26T12:31:12;1.80;;;0.53;;
11847;SDS011;5983;49.966;8.052;2023-03-26T12:33:42;0.83;;;0.40;;
11847;SDS011;5983;49.966;8.052;2023-03-26T12:36:15;2.67;;;0.50;;
11847;SDS011;5983;49.966;8.052;2023-03-26T12:38:51;1.60;;;0.30;;
11847;SDS011;5983;49.966;8.052;2023-03-26T12:41:32;1.03;;;0.40;;
11847;SDS011;5983;49.966;8.052;2023-03-26T12:44:18;0.63;;;0.30;;
11847;SDS011;5983;49.966;8.052;2023-03-26T12:46:51;0.43;;;0.43;;
11847;SDS011;5983;49.966;8.052;2023-03-26T12:49:36;0.90;;;0.40;;
11847;SDS011;5983;49.966;8.052;2023-03-26T12:52:08;1.77;;;0.60;;
11847;SDS011;5983;49.966;8.052;2023-03-26T12:55:14;1.60;;;0.30;;
11847;SDS011;5983;49.966;8.052;2023-03-26T12:58:04;2.17;;;0.50;;
11847;SDS011;5983;49.966;8.052;2023-03-26T13:00:57;1.43;;;0.50;;
11847;SDS011;5983;49.966;8.052;2023-03-26T13:03:35;1.07;;;0.40;;
11847;SDS011;5983;49.966;8.052;2023-03-26T13:06:19;1.50;;;0.47;;
11847;SDS011;5983;49.966;8.052;2023-03-26T13:09:06;1.23;;;0.40;;
11847;SDS011;5983;49.966;8.052;2023-03-26T13:11:56;1.03;;;0.67;;
11847;SDS011;5983;49.966;8.052;2023-03-26T13:14:49;0.93;;;0.30;;
11847;SDS011;5983;49.966;8.052;2023-03-26T13:17:42;1.60;;;0.43;;
11847;SDS011;5983;49.966;8.052;2023-03-26T13:20:27;0.43;;;0.23;;
11847;SDS011;5983;49.966;8.052;2023-03-26T13:23:11;1.13;;;0.50;;
11847;SDS011;5983;49.966;8.052;2023-03-26T13:25:58;1.70;;;0.43;;
11847;SDS011;5983;49.966;8.052;2023-03-26T13:28:41;0.40;;;0.27;;
11847;SDS011;5983;49.966;8.052;2023-03-26T13:31:19;1.50;;;0.40;;
11847;SDS011;5983;49.966;8.052;2023-03-26T13:33:53;0.50;;;0.30;;
11847;SDS011;5983;49.966;8.052;2023-03-26T13:36:31;1.70;;;0.50;;
11847;SDS011;5983;49.966;8.052;2023-03-26T13:39:22;1.43;;;0.50;;
11847;SDS011;5983;49.966;8.052;2023-03-26T13:42:02;0.90;;;0.37;;
11847;SDS011;5983;49.966;8.052;2023-03-26T13:44:51;4.97;;;1.10;;
11847;SDS011;5983;49.966;8.052;2023-03-26T13:47:29;1.30;;;0.50;;
11847;SDS011;5983;49.966;8.052;2023-03-26T13:50:00;2.20;;;0.50;;
11847;SDS011;5983;49.966;8.052;2023-03-26T13:52:37;2.73;;;0.77;;
11847;SDS011;5983;49.966;8.052;2023-03-26T13:55:17;1.67;;;0.50;;
11847;SDS011;5983;49.966;8.052;2023-03-26T13:57:49;2.30;;;0.40;;
11847;SDS011;5983;49.966;8.052;2023-03-26T14:00:29;4.07;;;0.57;;
11847;SDS011;5983;49.966;8.052;2023-03-26T14:03:14;2.57;;;0.70;;
11847;SDS011;5983;49.966;8.052;2023-03-26T14:05:54;1.57;;;0.53;;
11847;SDS011;5983;49.966;8.052;2023-03-26T14:08:26;1.07;;;0.40;;
11847;SDS011;5983;49.966;8.052;2023-03-26T14:11:01;2.23;;;0.50;;
11847;SDS011;5983;49.966;8.052;2023-03-26T14:13:35;4.37;;;0.70;;
11847;SDS011;5983;49.966;8.052;2023-03-26T14:16:15;0.90;;;0.57;;
11847;SDS011;5983;49.966;8.052;2023-03-26T14:18:50;4.10;;;0.60;;
11847;SDS011;5983;49.966;8.052;2023-03-26T14:21:37;2.63;;;0.57;;
11847;SDS011;5983;49.966;8.052;2023-03-26T14:24:33;2.67;;;0.47;;
11847;SDS011;5983;49.966;8.052;2023-03-26T14:27:30;1.97;;;0.67;;
11847;SDS011;5983;49.966;8.052;2023-03-26T14:30:27;3.63;;;0.90;;
11847;SDS011;5983;49.966;8.052;2023-03-26T14:33:24;2.50;;;0.60;;
11847;SDS011;5983;49.966;8.052;2023-03-26T14:36:18;1.50;;;0.60;;
11847;SDS011;5983;49.966;8.052;2023-03-26T14:39:20;2.27;;;0.60;;
11847;SDS011;5983;49.966;8.052;2023-03-26T14:42:06;1.10;;;0.40;;
11847;SDS011;5983;49.966;8.052;2023-03-26T14:44:51;1.70;;;0.60;;
11847;SDS011;5983;49.966;8.052;2023-03-26T14:47:47;3.33;;;0.80;;
11847;SDS011;5983;49.966;8.052;2023-03-26T14:50:38;1.80;;;0.47;;
11847;SDS011;5983;49.966;8.052;2023-03-26T14:53:24;3.57;;;0.60;;
11847;SDS011;5983;49.966;8.052;2023-03-26T14:56:05;2.80;;;0.70;;
11847;SDS011;5983;49.966;8.052;2023-03-26T14:59:11;5.33;;;0.60;;
11847;SDS011;5983;49.966;8.052;2023-03-26T15:02:22;5.13;;;1.03;;
11847;SDS011;5983;49.966;8.052;2023-03-26T15:05:44;2.00;;;0.60;;
11847;SDS011;5983;49.966;8.052;2023-03-26T15:12:00;1.60;;;0.50;;
11847;SDS011;5983;49.966;8.052;2023-03-26T15:14:55;3.90;;;0.83;;
11847;SDS011;5983;49.966;8.052;2023-03-26T15:21:36;3.33;;;0.30;;
11847;SDS011;5983;49.966;8.052;2023-03-26T15:25:09;1.60;;;1.43;;
11847;SDS011;5983;49.966;8.052;2023-03-26T15:31:33;0.10;;;0.10;;
11847;SDS011;5983;49.966;8.052;2023-03-26T15:35:09;0.80;;;0.30;;
11847;SDS011;5983;49.966;8.052;2023-03-26T15:38:28;4.63;;;0.20;;
11847;SDS011;5983;49.966;8.052;2023-03-26T15:41:50;0.30;;;0.10;;
11847;SDS011;5983;49.966;8.052;2023-03-26T15:44:37;1.10;;;0.17;;
11847;SDS011;5983;49.966;8.052;2023-03-26T15:50:25;0.90;;;0.30;;
11847;SDS011;5983;49.966;8.052;2023-03-26T15:53:04;1.07;;;0.93;;
11847;SDS011;5983;49.966;8.052;2023-03-26T15:55:54;0.87;;;0.20;;
11847;SDS011;5983;49.966;8.052;2023-03-26T15:58:41;1.97;;;0.33;;
11847;SDS011;5983;49.966;8.052;2023-03-26T16:01:23;1.10;;;0.30;;
11847;SDS011;5983;49.966;8.052;2023-03-26T16:04:09;1.10;;;0.17;;
11847;SDS011;5983;49.966;8.052;2023-03-26T16:06:52;0.53;;;0.30;;
11847;SDS011;5983;49.966;8.052;2023-03-26T16:09:32;0.43;;;0.30;;
11847;SDS011;5983;49.966;8.052;2023-03-26T16:12:27;1.30;;;0.20;;
11847;SDS011;5983;49.966;8.052;2023-03-26T16:18:14;0.10;;;0.10;;
11847;SDS011;5983;49.966;8.052;2023-03-26T16:21:01;0.10;;;0.10;;
11847;SDS011;5983;49.966;8.052;2023-03-26T16:24:10;2.10;;;0.30;;
11847;SDS011;5983;49.966;8.052;2023-03-26T16:30:07;0.97;;;0.43;;
11847;SDS011;5983;49.966;8.052;2023-03-26T16:32:53;0.53;;;0.20;;
11847;SDS011;5983;49.966;8.052;2023-03-26T16:35:34;1.03;;;0.20;;
11847;SDS011;5983;49.966;8.052;2023-03-26T16:38:46;1.23;;;0.40;;
11847;SDS011;5983;49.966;8.052;2023-03-26T16:41:26;0.90;;;0.47;;
11847;SDS011;5983;49.966;8.052;2023-03-26T16:44:05;1.03;;;0.30;;
11847;SDS011;5983;49.966;8.052;2023-03-26T16:46:45;0.20;;;0.20;;
11847;SDS011;5983;49.966;8.052;2023-03-26T16:49:29;0.23;;;0.17;;
11847;SDS011;5983;49.966;8.052;2023-03-26T16:52:19;0.97;;;0.37;;
11847;SDS011;5983;49.966;8.052;2023-03-26T16:55:01;0.70;;;0.47;;
11847;SDS011;5983;49.966;8.052;2023-03-26T16:57:40;1.77;;;0.43;;
11847;SDS011;5983;49.966;8.052;2023-03-26T17:00:24;1.33;;;0.30;;
11847;SDS011;5983;49.966;8.052;2023-03-26T17:03:15;1.27;;;0.27;;
11847;SDS011;5983;49.966;8.052;2023-03-26T17:06:01;2.97;;;0.40;;